createdAt,value
2019-04-25T00:01:24.150Z,62.36
2019-04-25T00:03:54.030Z,62.43
2019-04-25T00:06:25.340Z,62.48
2019-04-25T00:08:55.009Z,62.56
2019-04-25T00:11:24.563Z,62.63
2019-04-25T00:13:54.371Z,62.72
2019-04-25T00:16:25.643Z,62.79
2019-04-25T00:18:55.303Z,62.88
2019-04-25T00:21:42.507Z,62.96
2019-04-25T00:24:29.243Z,63.02
2019-04-25T00:26:58.841Z,63.13
2019-04-25T00:29:28.404Z,63.21
2019-04-25T00:31:58.040Z,63.30
2019-04-25T00:34:27.789Z,63.39
2019-04-25T00:36:58.752Z,63.48
2019-04-25T00:39:28.425Z,63.55
2019-04-25T00:41:57.983Z,63.62
2019-04-25T00:44:27.480Z,63.68
2019-04-25T00:46:57.008Z,63.74
2019-04-25T00:49:26.580Z,63.86
2019-04-25T00:51:56.174Z,63.93
2019-04-25T00:54:25.596Z,63.98
2019-04-25T00:56:55.089Z,64.09
2019-04-25T00:59:35.344Z,64.19
2019-04-25T01:02:07.650Z,64.24
2019-04-25T01:04:37.526Z,64.33
2019-04-25T01:07:06.955Z,64.42
2019-04-25T01:09:36.440Z,64.51
2019-04-25T01:12:09.417Z,64.58
2019-04-25T01:14:38.905Z,64.66
2019-04-25T01:17:09.538Z,64.73
2019-04-25T01:19:38.997Z,64.80
2019-04-25T01:22:09.046Z,64.87
2019-04-25T01:24:38.689Z,64.93
2019-04-25T01:27:08.943Z,64.98
2019-04-25T01:29:38.446Z,65.03
2019-04-25T01:32:09.679Z,65.08
2019-04-25T01:34:47.055Z,65.11
2019-04-25T01:37:18.404Z,65.17
2019-04-25T01:39:54.946Z,65.23
2019-04-25T01:42:31.543Z,65.29
2019-04-25T01:45:01.179Z,65.34
2019-04-25T01:47:30.833Z,65.42
2019-04-25T01:50:00.394Z,65.47
2019-04-25T01:52:29.821Z,65.52
2019-04-25T01:54:59.344Z,65.59
2019-04-25T01:57:28.788Z,65.64
2019-04-25T01:59:58.359Z,65.71
2019-04-25T02:02:29.586Z,65.78
2019-04-25T02:05:00.218Z,65.84
2019-04-25T02:07:30.013Z,65.90
2019-04-25T02:09:59.502Z,65.97
2019-04-25T02:12:30.629Z,66.04
2019-04-25T02:15:00.244Z,66.11
2019-04-25T02:17:29.875Z,66.17
2019-04-25T02:19:59.782Z,66.23
2019-04-25T02:22:29.471Z,66.29
2019-04-25T02:24:59.166Z,66.37
2019-04-25T02:27:28.710Z,66.42
2019-04-25T02:29:58.544Z,66.47
2019-04-25T02:32:28.212Z,66.55
2019-04-25T02:35:00.926Z,66.60
2019-04-25T02:37:28.980Z,66.64
2019-04-25T02:40:00.510Z,66.70
2019-04-25T02:42:29.742Z,66.75
2019-04-25T02:45:17.137Z,66.80
2019-04-25T02:48:01.429Z,66.89
2019-04-25T02:50:35.602Z,66.96
2019-04-25T02:53:14.168Z,67.03
2019-04-25T02:55:44.663Z,67.11
2019-04-25T02:58:14.323Z,67.17
2019-04-25T03:00:55.090Z,67.24
2019-04-25T03:03:16.207Z,67.30
2019-04-25T03:05:47.808Z,67.35
2019-04-25T03:08:17.124Z,67.40
2019-04-25T03:13:16.172Z,67.57
2019-04-25T03:15:45.729Z,67.62
2019-04-25T03:18:16.918Z,67.66
2019-04-25T03:20:51.175Z,67.72
2019-04-25T03:23:35.250Z,67.78
2019-04-25T03:26:06.252Z,67.86
2019-04-25T03:28:37.309Z,67.94
2019-04-25T03:31:15.264Z,68.01
2019-04-25T03:33:39.743Z,68.07
2019-04-25T03:36:09.422Z,68.14
2019-04-25T03:38:38.950Z,68.20
2019-04-25T03:41:08.696Z,68.25
2019-04-25T03:43:38.455Z,68.29
2019-04-25T03:46:08.286Z,68.33
2019-04-25T03:48:37.897Z,68.37
2019-04-25T03:51:08.356Z,68.41
2019-04-25T03:53:38.000Z,68.47
2019-04-25T03:56:08.612Z,68.53
2019-04-25T03:58:38.440Z,68.56
2019-04-25T04:01:09.296Z,68.62
2019-04-25T04:03:39.313Z,68.67
2019-04-25T04:06:09.801Z,68.75
2019-04-25T04:08:39.396Z,68.78
2019-04-25T04:11:10.050Z,68.84
2019-04-25T04:13:39.709Z,68.91
2019-04-25T04:16:09.204Z,68.93
2019-04-25T04:18:40.356Z,69.00
2019-04-25T04:21:11.486Z,69.03
2019-04-25T04:24:04.010Z,69.09
2019-04-25T04:26:33.752Z,69.12
2019-04-25T04:29:04.679Z,69.19
2019-04-25T04:31:34.277Z,69.24
2019-04-25T04:34:03.973Z,69.32
2019-04-25T04:36:33.868Z,69.38
2019-04-25T04:39:04.167Z,69.46
2019-04-25T04:41:34.050Z,69.49
2019-04-25T04:44:04.152Z,69.54
2019-04-25T04:46:34.829Z,69.56
2019-04-25T04:49:04.327Z,69.61
2019-04-25T04:51:33.915Z,69.63
2019-04-25T04:54:03.549Z,69.65
2019-04-25T04:56:34.212Z,69.69
2019-04-25T04:59:03.863Z,69.69
2019-04-25T05:01:34.916Z,69.71
2019-04-25T05:06:56.994Z,69.71
2019-04-25T05:12:44.683Z,69.66
2019-04-25T05:15:33.363Z,69.62
2019-04-25T05:17:50.672Z,69.57
2019-04-25T05:20:50.980Z,69.51
2019-04-25T05:22:58.784Z,69.47
2019-04-25T05:25:28.457Z,69.39
2019-04-25T05:28:03.056Z,69.35
2019-04-25T05:30:57.132Z,69.29
2019-04-25T05:33:30.510Z,69.24
2019-04-25T05:36:06.912Z,69.17
2019-04-25T05:39:04.045Z,69.10
2019-04-25T05:41:25.925Z,69.04
2019-04-25T05:43:55.379Z,68.94
2019-04-25T05:46:25.468Z,68.85
2019-04-25T05:48:57.202Z,68.80
2019-04-25T05:51:26.934Z,68.73
2019-04-25T05:53:57.806Z,68.65
2019-04-25T05:56:28.297Z,68.51
2019-04-25T05:58:58.018Z,68.41
2019-04-25T06:01:29.218Z,68.33
2019-04-25T06:03:58.881Z,68.24
2019-04-25T06:06:28.531Z,68.14
2019-04-25T06:09:21.809Z,68.06
2019-04-25T06:12:05.320Z,67.96
2019-04-25T06:14:39.190Z,67.85
2019-04-25T06:17:10.487Z,67.72
2019-04-25T06:19:50.568Z,67.55
2019-04-25T06:22:24.354Z,67.41
2019-04-25T06:24:54.844Z,67.27
2019-04-25T06:27:27.037Z,67.13
2019-04-25T06:30:00.840Z,66.98
2019-04-25T06:32:29.879Z,66.85
2019-04-25T06:34:59.620Z,66.67
2019-04-25T06:37:29.195Z,66.51
2019-04-25T06:39:58.791Z,66.37
2019-04-25T06:42:28.282Z,66.19
2019-04-25T06:45:08.176Z,66.08
2019-04-25T06:47:39.387Z,65.94
2019-04-25T06:50:10.536Z,65.80
2019-04-25T06:52:40.229Z,65.68
2019-04-25T06:55:09.921Z,65.55
2019-04-25T06:57:39.561Z,65.42
2019-04-25T07:00:11.793Z,65.30
2019-04-25T07:02:41.376Z,65.15
2019-04-25T07:05:24.512Z,65.00
2019-04-25T07:07:45.253Z,64.84
2019-04-25T07:11:08.985Z,64.72
2019-04-25T07:12:56.054Z,64.57
2019-04-25T07:15:26.978Z,64.40
2019-04-25T07:17:57.236Z,64.27
2019-04-25T07:20:27.461Z,64.11
2019-04-25T07:23:04.410Z,63.96
2019-04-25T07:25:53.716Z,63.82
2019-04-25T07:28:36.009Z,63.69
2019-04-25T07:31:20.490Z,63.55
2019-04-25T07:33:56.026Z,63.41
2019-04-25T07:36:25.779Z,63.26
2019-04-25T07:39:05.863Z,63.15
2019-04-25T07:41:28.055Z,63.04
2019-04-25T07:43:57.592Z,62.95
2019-04-25T07:46:27.806Z,62.85
2019-04-25T07:48:57.335Z,62.77
2019-04-25T07:51:26.907Z,62.68
2019-04-25T07:53:56.340Z,62.58
2019-04-25T07:56:25.917Z,62.49
2019-04-25T07:58:55.521Z,62.35
2019-04-25T08:01:25.023Z,62.23
2019-04-25T08:03:54.525Z,62.13
2019-04-25T08:06:24.307Z,61.96
2019-04-25T08:08:54.573Z,61.80
2019-04-25T08:11:24.715Z,61.65
2019-04-25T08:14:14.286Z,61.53
2019-04-25T08:16:47.000Z,61.41
2019-04-25T08:19:16.560Z,61.24
2019-04-25T08:21:46.632Z,61.11
2019-04-25T08:24:16.389Z,61.01
2019-04-25T08:26:45.959Z,60.92
2019-04-25T08:29:15.492Z,60.77
2019-04-25T08:31:45.369Z,60.66
2019-04-25T08:34:16.138Z,60.53
2019-04-25T08:36:45.835Z,60.40
2019-04-25T08:39:15.407Z,60.26
2019-04-25T08:41:45.686Z,60.12
2019-04-25T08:44:16.329Z,59.99
2019-04-25T08:46:48.504Z,59.83
2019-04-25T08:49:18.634Z,59.67
2019-04-25T08:51:50.932Z,59.55
2019-04-25T08:54:31.036Z,59.42
2019-04-25T08:57:04.364Z,59.26
2019-04-25T08:59:50.482Z,59.12
2019-04-25T09:02:34.934Z,58.97
2019-04-25T09:05:24.916Z,58.85
2019-04-25T09:07:54.507Z,58.70
2019-04-25T09:10:24.055Z,58.58
2019-04-25T09:12:53.907Z,58.41
2019-04-25T09:15:24.194Z,58.25
2019-04-25T09:17:54.678Z,58.06
2019-04-25T09:20:24.639Z,57.94
2019-04-25T09:22:54.472Z,57.76
2019-04-25T09:25:24.051Z,57.59
2019-04-25T09:27:54.368Z,57.48
2019-04-25T09:30:24.629Z,57.33
2019-04-25T09:32:54.166Z,57.21
2019-04-25T09:35:23.800Z,57.02
2019-04-25T09:37:53.719Z,56.89
2019-04-25T09:40:24.115Z,56.73
2019-04-25T09:42:55.155Z,56.60
2019-04-25T09:45:43.552Z,56.44
2019-04-25T09:48:14.573Z,56.33
2019-04-25T09:50:46.384Z,56.16
2019-04-25T09:53:23.534Z,55.99
2019-04-25T09:56:06.439Z,55.81
2019-04-25T09:58:40.604Z,55.68
2019-04-25T10:01:13.889Z,55.53
2019-04-25T10:03:45.650Z,55.39
2019-04-25T10:06:17.933Z,55.20
2019-04-25T10:08:48.767Z,55.07
2019-04-25T10:11:18.456Z,54.89
2019-04-25T10:13:50.929Z,54.73
2019-04-25T10:16:20.538Z,54.58
2019-04-25T10:18:50.193Z,54.47
2019-04-25T10:21:19.996Z,54.30
2019-04-25T10:23:51.217Z,54.12
2019-04-25T10:26:22.306Z,54.01
2019-04-25T10:28:51.909Z,53.89
2019-04-25T10:31:23.764Z,53.78
2019-04-25T10:33:54.590Z,53.62
2019-04-25T10:36:25.414Z,53.48
2019-04-25T10:39:07.209Z,53.32
2019-04-25T10:41:26.368Z,53.15
2019-04-25T10:43:57.078Z,52.99
2019-04-25T10:46:26.714Z,52.83
2019-04-25T10:48:56.299Z,52.67
2019-04-25T10:51:26.074Z,52.54
2019-04-25T10:53:55.508Z,52.38
2019-04-25T10:56:25.096Z,52.23
2019-04-25T10:58:55.010Z,52.07
2019-04-25T11:01:24.990Z,51.91
2019-04-25T11:03:56.237Z,51.79
2019-04-25T11:06:30.709Z,51.68
2019-04-25T11:09:00.397Z,51.54
2019-04-25T11:11:34.890Z,51.38
2019-04-25T11:14:07.378Z,51.28
2019-04-25T11:16:35.943Z,51.20
2019-04-25T11:19:05.710Z,51.11
2019-04-25T11:21:35.509Z,50.98
2019-04-25T11:24:05.374Z,50.85
2019-04-25T11:26:34.935Z,50.71
2019-04-25T11:29:04.598Z,50.56
2019-04-25T11:31:35.916Z,50.41
2019-04-25T11:34:05.481Z,50.25
2019-04-25T11:36:35.063Z,50.10
2019-04-25T11:39:11.566Z,49.97
2019-04-25T11:41:41.136Z,49.84
2019-04-25T11:44:10.631Z,49.71
2019-04-25T11:46:40.231Z,49.53
2019-04-25T11:49:10.293Z,49.40
2019-04-25T11:51:40.089Z,49.23
2019-04-25T11:54:09.592Z,49.10
2019-04-25T11:56:39.252Z,48.95
2019-04-25T11:59:08.989Z,48.83
2019-04-25T12:01:38.629Z,48.73
2019-04-25T12:04:08.307Z,48.63
2019-04-25T12:06:37.896Z,48.52
2019-04-25T12:09:07.725Z,48.41
2019-04-25T12:11:38.858Z,48.34
2019-04-25T12:14:09.579Z,48.23
2019-04-25T12:16:39.107Z,48.11
2019-04-25T12:19:08.633Z,48.11
2019-04-25T12:21:38.200Z,48.02
2019-04-25T12:24:07.766Z,47.94
2019-04-25T12:26:37.360Z,47.89
2019-04-25T12:29:07.001Z,47.82
2019-04-25T12:31:36.670Z,47.73
2019-04-25T12:34:06.269Z,47.64
2019-04-25T12:36:37.039Z,47.54
2019-04-25T12:39:07.233Z,47.44
2019-04-25T12:41:38.414Z,47.36
2019-04-25T12:44:21.929Z,47.31
2019-04-25T12:46:54.588Z,47.19
2019-04-25T12:49:24.428Z,47.15
2019-04-25T12:51:53.990Z,47.10
2019-04-25T12:54:23.893Z,47.06
2019-04-25T12:56:53.788Z,47.04
2019-04-25T12:59:23.341Z,47.00
2019-04-25T13:01:54.533Z,46.93
2019-04-25T13:04:24.147Z,46.88
2019-04-25T13:06:54.456Z,46.84
2019-04-25T13:09:24.069Z,46.77
2019-04-25T13:11:53.734Z,46.75
2019-04-25T13:14:23.165Z,46.70
2019-04-25T13:16:52.658Z,46.65
2019-04-25T13:19:24.618Z,46.57
2019-04-25T13:21:54.395Z,46.52
2019-04-25T13:24:24.147Z,46.50
2019-04-25T13:26:56.860Z,46.46
2019-04-25T13:29:31.264Z,46.45
2019-04-25T13:32:11.322Z,46.42
2019-04-25T13:34:43.716Z,46.38
2019-04-25T13:37:14.184Z,46.34
2019-04-25T13:39:44.245Z,46.31
2019-04-25T13:42:14.401Z,46.27
2019-04-25T13:44:44.321Z,46.25
2019-04-25T13:47:14.144Z,46.25
2019-04-25T13:49:43.791Z,46.27
2019-04-25T13:52:13.442Z,46.22
2019-04-25T13:54:43.580Z,46.25
2019-04-25T13:57:13.405Z,46.21
2019-04-25T13:59:44.134Z,46.20
2019-04-25T14:02:14.263Z,46.16
2019-04-25T14:04:44.264Z,46.15
2019-04-25T14:07:14.017Z,46.15
2019-04-25T14:09:44.710Z,46.12
2019-04-25T14:12:19.143Z,46.12
2019-04-25T14:14:50.429Z,46.09
2019-04-25T14:17:27.842Z,46.10
2019-04-25T14:20:19.443Z,46.13
2019-04-25T14:22:50.979Z,46.13
2019-04-25T14:25:20.692Z,46.15
2019-04-25T14:27:50.254Z,46.17
2019-04-25T14:30:22.299Z,46.17
2019-04-25T14:32:53.662Z,46.17
2019-04-25T14:35:39.768Z,46.18
2019-04-25T14:38:09.556Z,46.20
2019-04-25T14:52:57.316Z,46.49
2019-04-25T15:01:43.817Z,46.57
2019-04-25T15:04:05.485Z,46.65
2019-04-25T15:06:37.830Z,46.71
2019-04-25T15:09:08.229Z,46.80
2019-04-25T15:11:38.174Z,46.85
2019-04-25T15:14:07.675Z,46.90
2019-04-25T15:16:37.245Z,47.00
2019-04-25T15:19:07.015Z,47.07
2019-04-25T15:21:36.536Z,47.20
2019-04-25T15:24:06.213Z,47.33
2019-04-25T15:26:35.884Z,47.46
2019-04-25T15:29:05.628Z,47.55
2019-04-25T15:31:36.772Z,47.68
2019-04-25T15:34:07.491Z,47.77
2019-04-25T15:36:38.851Z,47.86
2019-04-25T15:39:18.850Z,47.96
2019-04-25T15:41:50.071Z,48.06
2019-04-25T15:44:21.304Z,48.16
2019-04-25T15:46:52.591Z,48.20
2019-04-25T15:49:31.255Z,48.29
2019-04-25T15:52:00.915Z,48.37
2019-04-25T15:54:31.717Z,48.51
2019-04-25T15:57:11.228Z,48.58
2019-04-25T15:59:52.943Z,48.66
2019-04-25T16:04:17.103Z,48.74
2019-04-25T16:05:35.592Z,48.80
2019-04-25T16:11:21.593Z,48.86
2019-04-25T16:13:42.334Z,48.94
2019-04-25T16:16:14.042Z,49.04
2019-04-25T16:18:46.897Z,49.14
2019-04-25T16:21:16.905Z,49.24
2019-04-25T16:23:49.815Z,49.32
2019-04-25T16:26:19.628Z,49.41
2019-04-25T16:28:51.273Z,49.52
2019-04-25T16:31:22.528Z,49.55
2019-04-25T16:33:52.029Z,49.62
2019-04-25T16:36:21.700Z,49.69
2019-04-25T16:38:51.337Z,49.79
2019-04-25T16:41:21.677Z,49.85
2019-04-25T16:43:52.968Z,49.95
2019-04-25T16:46:23.439Z,50.06
2019-04-25T16:48:53.031Z,50.14
2019-04-25T16:51:37.923Z,50.21
2019-04-25T16:54:09.240Z,50.28
2019-04-25T16:56:43.566Z,50.38
2019-04-25T16:59:14.911Z,50.47
2019-04-25T17:01:44.849Z,50.55
2019-04-25T17:04:14.726Z,50.68
2019-04-25T17:06:45.607Z,50.78
2019-04-25T17:09:15.428Z,50.91
2019-04-25T17:11:45.078Z,51.03
2019-04-25T17:14:16.263Z,51.13
2019-04-25T17:17:06.631Z,51.22
2019-04-25T17:19:40.914Z,51.34
2019-04-25T17:22:10.491Z,51.54
2019-04-25T17:24:41.172Z,51.79
2019-04-25T17:27:11.100Z,52.11
2019-04-25T17:29:40.526Z,52.43
2019-04-25T17:32:18.786Z,52.77
2019-04-25T17:35:04.646Z,53.09
2019-04-25T17:37:36.434Z,53.40
2019-04-25T17:40:08.343Z,53.75
2019-04-25T17:42:38.897Z,54.01
2019-04-25T17:45:10.756Z,54.22
2019-04-25T17:47:51.750Z,54.55
2019-04-25T17:50:11.698Z,54.85
2019-04-25T17:52:41.239Z,55.17
2019-04-25T17:55:11.508Z,55.46
2019-04-25T17:57:42.034Z,55.72
2019-04-25T18:00:28.345Z,55.98
2019-04-25T18:03:00.782Z,56.26
2019-04-25T18:05:30.423Z,56.55
2019-04-25T18:07:59.973Z,56.84
2019-04-25T18:10:29.517Z,57.06
2019-04-25T18:12:59.043Z,57.31
2019-04-25T18:15:30.227Z,57.59
2019-04-25T18:18:01.196Z,57.78
2019-04-25T18:20:32.504Z,58.04
2019-04-25T18:23:18.602Z,58.29
2019-04-25T18:26:06.062Z,58.53
2019-04-25T18:28:40.056Z,58.80
2019-04-25T18:31:09.653Z,59.06
2019-04-25T18:33:39.442Z,59.31
2019-04-25T18:36:16.638Z,59.50
2019-04-25T18:38:47.702Z,59.70
2019-04-25T18:41:18.946Z,59.91
2019-04-25T18:43:53.073Z,60.11
2019-04-25T18:46:24.313Z,60.28
2019-04-25T18:48:53.894Z,60.46
2019-04-25T18:51:23.520Z,60.67
2019-04-25T18:53:57.728Z,60.82
2019-04-25T18:56:28.920Z,61.02
2019-04-25T18:59:05.917Z,61.21
2019-04-25T19:01:53.310Z,61.39
2019-04-25T19:04:27.664Z,61.57
2019-04-25T19:06:58.337Z,61.80
2019-04-25T19:09:28.108Z,61.99
2019-04-25T19:11:57.745Z,62.16
2019-04-25T19:14:27.434Z,62.34
2019-04-25T19:16:57.478Z,62.48
2019-04-25T19:19:27.073Z,62.62
2019-04-25T19:21:58.764Z,62.80
2019-04-25T19:24:28.180Z,62.98
2019-04-25T19:26:57.719Z,63.14
2019-04-25T19:29:27.363Z,63.30
2019-04-25T19:31:56.996Z,63.46
2019-04-25T19:34:26.519Z,63.60
2019-04-25T19:36:56.170Z,63.78
2019-04-25T19:39:27.521Z,63.92
2019-04-25T19:42:16.851Z,64.06
2019-04-25T19:44:47.199Z,64.22
2019-04-25T19:47:17.219Z,64.39
2019-04-25T19:49:48.147Z,64.50
2019-04-25T19:58:11.572Z,64.94
2019-04-25T20:00:41.556Z,65.07
2019-04-25T20:03:20.040Z,65.18
2019-04-25T20:05:51.280Z,65.29
2019-04-25T20:08:28.439Z,65.43
2019-04-25T20:10:59.679Z,65.56
2019-04-25T20:13:29.270Z,65.68
2019-04-25T20:16:00.140Z,65.83
2019-04-25T20:18:30.872Z,65.97
2019-04-25T20:21:00.551Z,66.09
2019-04-25T20:23:30.464Z,66.21
2019-04-25T20:26:00.135Z,66.30
2019-04-25T20:28:31.149Z,66.41
2019-04-25T20:31:02.266Z,66.51
2019-04-25T20:33:31.795Z,66.61
2019-04-25T20:36:01.365Z,66.72
2019-04-25T20:38:30.797Z,66.83
2019-04-25T20:41:00.430Z,66.93
2019-04-25T20:43:30.116Z,67.01
2019-04-25T20:45:59.950Z,67.11
2019-04-25T20:48:29.475Z,67.21
2019-04-25T20:50:59.119Z,67.31
2019-04-25T20:53:28.576Z,67.42
2019-04-25T20:55:58.239Z,67.52
2019-04-25T20:58:27.674Z,67.59
2019-04-25T21:03:27.399Z,67.78
2019-04-25T21:05:58.740Z,67.90
2019-04-25T21:08:28.248Z,67.99
2019-04-25T21:10:57.912Z,68.10
2019-04-25T21:13:32.646Z,68.18
2019-04-25T21:16:15.817Z,68.27
2019-04-25T21:18:53.181Z,68.35
2019-04-25T21:21:22.801Z,68.47
2019-04-25T21:23:53.022Z,68.52
2019-04-25T21:26:22.668Z,68.62
2019-04-25T21:28:52.267Z,68.74
2019-04-25T21:31:22.901Z,68.82
2019-04-25T21:33:52.824Z,68.92
2019-04-25T21:36:22.552Z,68.95
2019-04-25T21:38:53.599Z,69.05
2019-04-25T21:41:41.553Z,69.13
2019-04-25T21:44:11.402Z,69.22
2019-04-25T21:46:40.902Z,69.33
2019-04-25T21:49:10.963Z,69.39
2019-04-25T21:51:40.520Z,69.48
2019-04-25T21:54:10.060Z,69.56
2019-04-25T21:56:40.021Z,69.63
2019-04-25T21:59:09.966Z,69.68
2019-04-25T22:01:43.601Z,69.75
2019-04-25T22:04:13.476Z,69.85
2019-04-25T22:06:43.382Z,69.92
2019-04-25T22:09:22.833Z,69.99
2019-04-25T22:11:52.678Z,70.08
2019-04-25T22:14:22.489Z,70.16
2019-04-25T22:16:52.377Z,70.22
2019-04-25T22:19:22.226Z,70.30
2019-04-25T22:21:52.096Z,70.36
2019-04-25T22:24:21.989Z,70.43
2019-04-25T22:26:53.364Z,70.50
2019-04-25T22:29:23.103Z,70.57
2019-04-25T22:31:59.272Z,70.62
2019-04-25T22:34:31.101Z,70.69
2019-04-25T22:37:02.116Z,70.78
2019-04-25T22:39:31.743Z,70.82
2019-04-25T22:42:01.929Z,70.87
2019-04-25T22:44:33.019Z,70.95
2019-04-25T22:47:02.762Z,71.03
2019-04-25T22:49:32.292Z,71.12
2019-04-25T22:52:03.293Z,71.20
2019-04-25T22:54:32.909Z,71.25
2019-04-25T22:57:02.644Z,71.29
2019-04-25T22:59:32.537Z,71.34
2019-04-25T23:02:18.732Z,71.39
2019-04-25T23:05:09.024Z,71.45
2019-04-25T23:07:34.475Z,71.51
2019-04-25T23:10:08.366Z,71.55
2019-04-25T23:12:38.332Z,71.60
2019-04-25T23:15:08.796Z,71.65
2019-04-25T23:17:38.421Z,71.68
2019-04-25T23:20:08.256Z,71.76
2019-04-25T23:22:38.001Z,71.82
2019-04-25T23:25:09.977Z,71.87
2019-04-25T23:27:41.348Z,71.88
2019-04-25T23:30:12.826Z,71.90
2019-04-25T23:32:42.371Z,71.97
2019-04-25T23:35:24.270Z,72.00
2019-04-25T23:37:43.320Z,72.03
2019-04-25T23:40:13.720Z,72.07
2019-04-25T23:42:43.428Z,72.13
2019-04-25T23:45:13.136Z,72.19
2019-04-25T23:47:42.977Z,72.26
2019-04-25T23:50:12.891Z,72.31
2019-04-25T23:52:42.366Z,72.34
2019-04-25T23:55:12.825Z,72.37
2019-04-25T23:57:42.636Z,72.41
